sensor_id;sensor_type;location;lat;lon;timestamp;P1;durP1;ratioP1;P2;durP2;ratioP2
28844;SDS011;15976;47.938;7.758;2024-01-30T00:01:16;6.07;;;3.15;;
28844;SDS011;15976;47.938;7.758;2024-01-30T00:03:44;4.60;;;2.47;;
28844;SDS011;15976;47.938;7.758;2024-01-30T00:06:11;6.90;;;2.80;;
28844;SDS011;15976;47.938;7.758;2024-01-30T00:08:38;8.77;;;2.50;;
28844;SDS011;15976;47.938;7.758;2024-01-30T00:11:07;3.13;;;2.35;;
28844;SDS011;15976;47.938;7.758;2024-01-30T00:13:34;5.13;;;2.58;;
28844;SDS011;15976;47.938;7.758;2024-01-30T00:16:01;5.68;;;2.60;;
28844;SDS011;15976;47.938;7.758;2024-01-30T00:18:28;6.65;;;2.63;;
28844;SDS011;15976;47.938;7.758;2024-01-30T00:20:55;3.65;;;2.80;;
28844;SDS011;15976;47.938;7.758;2024-01-30T00:23:22;4.95;;;2.50;;
28844;SDS011;15976;47.938;7.758;2024-01-30T00:25:50;5.78;;;2.95;;
28844;SDS011;15976;47.938;7.758;2024-01-30T00:28:17;4.80;;;2.58;;
28844;SDS011;15976;47.938;7.758;2024-01-30T00:30:44;4.55;;;2.80;;
28844;SDS011;15976;47.938;7.758;2024-01-30T00:33:11;4.60;;;2.50;;
28844;SDS011;15976;47.938;7.758;2024-01-30T00:35:38;5.05;;;2.67;;
28844;SDS011;15976;47.938;7.758;2024-01-30T00:38:05;4.20;;;2.42;;
28844;SDS011;15976;47.938;7.758;2024-01-30T00:40:34;4.07;;;2.70;;
28844;SDS011;15976;47.938;7.758;2024-01-30T00:43:01;4.32;;;2.75;;
28844;SDS011;15976;47.938;7.758;2024-01-30T00:45:28;4.35;;;2.45;;
28844;SDS011;15976;47.938;7.758;2024-01-30T00:47:55;4.93;;;2.53;;
28844;SDS011;15976;47.938;7.758;2024-01-30T00:50:22;8.60;;;2.97;;
28844;SDS011;15976;47.938;7.758;2024-01-30T00:52:49;6.30;;;2.60;;
28844;SDS011;15976;47.938;7.758;2024-01-30T00:55:16;4.43;;;2.50;;
28844;SDS011;15976;47.938;7.758;2024-01-30T00:57:43;4.28;;;2.50;;
28844;SDS011;15976;47.938;7.758;2024-01-30T01:00:11;5.47;;;2.50;;
28844;SDS011;15976;47.938;7.758;2024-01-30T01:02:39;4.10;;;2.70;;
28844;SDS011;15976;47.938;7.758;2024-01-30T01:05:06;5.63;;;3.03;;
28844;SDS011;15976;47.938;7.758;2024-01-30T01:07:33;5.40;;;2.80;;
28844;SDS011;15976;47.938;7.758;2024-01-30T01:10:01;9.93;;;3.10;;
28844;SDS011;15976;47.938;7.758;2024-01-30T01:12:29;4.93;;;2.75;;
28844;SDS011;15976;47.938;7.758;2024-01-30T01:14:56;5.45;;;2.92;;
28844;SDS011;15976;47.938;7.758;2024-01-30T01:17:24;4.57;;;2.67;;
28844;SDS011;15976;47.938;7.758;2024-01-30T01:19:51;3.78;;;2.67;;
28844;SDS011;15976;47.938;7.758;2024-01-30T01:22:18;4.20;;;2.90;;
28844;SDS011;15976;47.938;7.758;2024-01-30T01:24:45;7.28;;;3.45;;
28844;SDS011;15976;47.938;7.758;2024-01-30T01:27:12;4.82;;;3.13;;
28844;SDS011;15976;47.938;7.758;2024-01-30T01:29:40;5.40;;;2.90;;
28844;SDS011;15976;47.938;7.758;2024-01-30T01:32:07;4.65;;;2.97;;
28844;SDS011;15976;47.938;7.758;2024-01-30T01:34:34;4.88;;;2.97;;
28844;SDS011;15976;47.938;7.758;2024-01-30T01:37:01;5.25;;;3.15;;
28844;SDS011;15976;47.938;7.758;2024-01-30T01:39:28;4.95;;;2.85;;
28844;SDS011;15976;47.938;7.758;2024-01-30T01:41:55;4.50;;;2.83;;
28844;SDS011;15976;47.938;7.758;2024-01-30T01:44:22;4.57;;;3.08;;
28844;SDS011;15976;47.938;7.758;2024-01-30T01:46:49;6.80;;;3.45;;
28844;SDS011;15976;47.938;7.758;2024-01-30T01:49:18;3.90;;;3.30;;
28844;SDS011;15976;47.938;7.758;2024-01-30T01:51:47;4.53;;;3.00;;
28844;SDS011;15976;47.938;7.758;2024-01-30T01:54:15;5.20;;;2.90;;
28844;SDS011;15976;47.938;7.758;2024-01-30T01:56:43;7.72;;;3.33;;
28844;SDS011;15976;47.938;7.758;2024-01-30T01:59:10;5.35;;;3.53;;
28844;SDS011;15976;47.938;7.758;2024-01-30T02:01:37;6.60;;;3.13;;
28844;SDS011;15976;47.938;7.758;2024-01-30T02:04:05;4.93;;;2.92;;
28844;SDS011;15976;47.938;7.758;2024-01-30T02:06:33;6.43;;;3.25;;
28844;SDS011;15976;47.938;7.758;2024-01-30T02:09:01;4.88;;;3.00;;
28844;SDS011;15976;47.938;7.758;2024-01-30T02:11:28;3.50;;;2.70;;
28844;SDS011;15976;47.938;7.758;2024-01-30T02:13:55;4.18;;;2.65;;
28844;SDS011;15976;47.938;7.758;2024-01-30T02:16:22;6.57;;;2.97;;
28844;SDS011;15976;47.938;7.758;2024-01-30T02:18:49;5.28;;;3.10;;
28844;SDS011;15976;47.938;7.758;2024-01-30T02:21:17;5.93;;;3.03;;
28844;SDS011;15976;47.938;7.758;2024-01-30T02:23:46;3.80;;;2.78;;
28844;SDS011;15976;47.938;7.758;2024-01-30T02:26:14;5.60;;;3.08;;
28844;SDS011;15976;47.938;7.758;2024-01-30T02:28:42;5.00;;;2.83;;
28844;SDS011;15976;47.938;7.758;2024-01-30T02:31:09;5.53;;;3.10;;
28844;SDS011;15976;47.938;7.758;2024-01-30T02:33:36;5.22;;;2.83;;
28844;SDS011;15976;47.938;7.758;2024-01-30T02:36:03;3.42;;;2.72;;
28844;SDS011;15976;47.938;7.758;2024-01-30T02:38:30;5.65;;;3.10;;
28844;SDS011;15976;47.938;7.758;2024-01-30T02:40:57;4.28;;;2.90;;
28844;SDS011;15976;47.938;7.758;2024-01-30T02:43:25;5.57;;;3.08;;
28844;SDS011;15976;47.938;7.758;2024-01-30T02:45:52;5.25;;;3.28;;
28844;SDS011;15976;47.938;7.758;2024-01-30T02:48:19;8.07;;;3.45;;
28844;SDS011;15976;47.938;7.758;2024-01-30T02:50:46;5.32;;;3.08;;
28844;SDS011;15976;47.938;7.758;2024-01-30T02:53:13;5.75;;;3.15;;
28844;SDS011;15976;47.938;7.758;2024-01-30T02:55:40;4.72;;;2.90;;
28844;SDS011;15976;47.938;7.758;2024-01-30T02:58:07;5.47;;;3.15;;
28844;SDS011;15976;47.938;7.758;2024-01-30T03:00:34;4.55;;;3.20;;
28844;SDS011;15976;47.938;7.758;2024-01-30T03:03:02;4.18;;;3.05;;
28844;SDS011;15976;47.938;7.758;2024-01-30T03:05:29;8.73;;;3.25;;
28844;SDS011;15976;47.938;7.758;2024-01-30T03:07:56;5.50;;;3.47;;
28844;SDS011;15976;47.938;7.758;2024-01-30T03:10:23;5.03;;;3.10;;
28844;SDS011;15976;47.938;7.758;2024-01-30T03:12:50;4.32;;;3.30;;
28844;SDS011;15976;47.938;7.758;2024-01-30T03:15:17;6.43;;;3.38;;
28844;SDS011;15976;47.938;7.758;2024-01-30T03:17:44;6.38;;;3.45;;
28844;SDS011;15976;47.938;7.758;2024-01-30T03:20:11;7.55;;;3.67;;
28844;SDS011;15976;47.938;7.758;2024-01-30T03:22:39;6.10;;;3.50;;
28844;SDS011;15976;47.938;7.758;2024-01-30T03:25:06;5.30;;;3.63;;
28844;SDS011;15976;47.938;7.758;2024-01-30T03:27:33;5.55;;;3.67;;
28844;SDS011;15976;47.938;7.758;2024-01-30T03:30:00;6.30;;;3.75;;
28844;SDS011;15976;47.938;7.758;2024-01-30T03:32:27;7.00;;;3.80;;
28844;SDS011;15976;47.938;7.758;2024-01-30T03:34:54;4.03;;;3.20;;
28844;SDS011;15976;47.938;7.758;2024-01-30T03:37:22;6.30;;;3.30;;
28844;SDS011;15976;47.938;7.758;2024-01-30T03:39:49;5.57;;;3.50;;
28844;SDS011;15976;47.938;7.758;2024-01-30T03:42:16;8.45;;;3.80;;
28844;SDS011;15976;47.938;7.758;2024-01-30T03:44:43;5.38;;;3.53;;
28844;SDS011;15976;47.938;7.758;2024-01-30T03:47:10;7.57;;;3.72;;
28844;SDS011;15976;47.938;7.758;2024-01-30T03:49:37;8.52;;;3.78;;
28844;SDS011;15976;47.938;7.758;2024-01-30T03:52:04;7.80;;;3.67;;
28844;SDS011;15976;47.938;7.758;2024-01-30T03:54:32;6.05;;;3.53;;
28844;SDS011;15976;47.938;7.758;2024-01-30T03:56:59;6.78;;;3.95;;
28844;SDS011;15976;47.938;7.758;2024-01-30T03:59:26;5.57;;;4.00;;
28844;SDS011;15976;47.938;7.758;2024-01-30T04:01:54;6.30;;;3.97;;
28844;SDS011;15976;47.938;7.758;2024-01-30T04:04:21;6.68;;;3.65;;
28844;SDS011;15976;47.938;7.758;2024-01-30T04:06:49;8.10;;;4.13;;
28844;SDS011;15976;47.938;7.758;2024-01-30T04:09:16;5.53;;;3.90;;
28844;SDS011;15976;47.938;7.758;2024-01-30T04:11:43;5.65;;;3.88;;
28844;SDS011;15976;47.938;7.758;2024-01-30T04:14:10;5.30;;;3.65;;
28844;SDS011;15976;47.938;7.758;2024-01-30T04:16:37;10.40;;;3.83;;
28844;SDS011;15976;47.938;7.758;2024-01-30T04:19:04;5.07;;;3.58;;
28844;SDS011;15976;47.938;7.758;2024-01-30T04:21:31;6.40;;;3.63;;
28844;SDS011;15976;47.938;7.758;2024-01-30T04:23:58;5.32;;;3.55;;
28844;SDS011;15976;47.938;7.758;2024-01-30T04:26:25;6.15;;;3.45;;
28844;SDS011;15976;47.938;7.758;2024-01-30T04:28:52;5.90;;;3.90;;
28844;SDS011;15976;47.938;7.758;2024-01-30T04:31:19;6.15;;;3.60;;
28844;SDS011;15976;47.938;7.758;2024-01-30T04:33:46;6.03;;;3.50;;
28844;SDS011;15976;47.938;7.758;2024-01-30T04:36:13;7.32;;;3.50;;
28844;SDS011;15976;47.938;7.758;2024-01-30T04:38:40;6.28;;;3.60;;
28844;SDS011;15976;47.938;7.758;2024-01-30T04:41:07;4.90;;;3.42;;
28844;SDS011;15976;47.938;7.758;2024-01-30T04:43:35;8.68;;;3.80;;
28844;SDS011;15976;47.938;7.758;2024-01-30T04:46:02;5.88;;;3.30;;
28844;SDS011;15976;47.938;7.758;2024-01-30T04:48:29;5.18;;;3.67;;
28844;SDS011;15976;47.938;7.758;2024-01-30T04:50:56;8.60;;;3.65;;
28844;SDS011;15976;47.938;7.758;2024-01-30T04:53:24;5.90;;;3.53;;
28844;SDS011;15976;47.938;7.758;2024-01-30T04:55:51;4.65;;;3.20;;
28844;SDS011;15976;47.938;7.758;2024-01-30T04:58:18;4.53;;;3.20;;
28844;SDS011;15976;47.938;7.758;2024-01-30T05:00:45;7.70;;;3.75;;
28844;SDS011;15976;47.938;7.758;2024-01-30T05:03:14;5.85;;;3.55;;
28844;SDS011;15976;47.938;7.758;2024-01-30T05:05:42;5.63;;;3.47;;
28844;SDS011;15976;47.938;7.758;2024-01-30T05:08:09;5.60;;;3.40;;
28844;SDS011;15976;47.938;7.758;2024-01-30T05:10:37;5.07;;;3.65;;
28844;SDS011;15976;47.938;7.758;2024-01-30T05:13:04;5.72;;;3.22;;
28844;SDS011;15976;47.938;7.758;2024-01-30T05:15:31;5.82;;;3.97;;
28844;SDS011;15976;47.938;7.758;2024-01-30T05:17:58;5.35;;;3.90;;
28844;SDS011;15976;47.938;7.758;2024-01-30T05:20:26;5.43;;;3.38;;
28844;SDS011;15976;47.938;7.758;2024-01-30T05:22:56;6.15;;;4.10;;
28844;SDS011;15976;47.938;7.758;2024-01-30T05:25:23;7.53;;;3.80;;
28844;SDS011;15976;47.938;7.758;2024-01-30T05:27:50;7.32;;;3.83;;
28844;SDS011;15976;47.938;7.758;2024-01-30T05:30:17;5.20;;;3.80;;
28844;SDS011;15976;47.938;7.758;2024-01-30T05:32:44;5.63;;;3.92;;
28844;SDS011;15976;47.938;7.758;2024-01-30T05:35:11;8.70;;;4.13;;
28844;SDS011;15976;47.938;7.758;2024-01-30T05:37:38;7.13;;;4.07;;
28844;SDS011;15976;47.938;7.758;2024-01-30T05:40:06;7.88;;;3.92;;
28844;SDS011;15976;47.938;7.758;2024-01-30T05:42:33;10.30;;;4.53;;
28844;SDS011;15976;47.938;7.758;2024-01-30T05:45:00;8.23;;;4.05;;
28844;SDS011;15976;47.938;7.758;2024-01-30T05:47:27;6.38;;;3.97;;
28844;SDS011;15976;47.938;7.758;2024-01-30T05:49:54;7.10;;;4.10;;
28844;SDS011;15976;47.938;7.758;2024-01-30T05:52:24;7.18;;;4.18;;
28844;SDS011;15976;47.938;7.758;2024-01-30T05:54:51;6.07;;;4.15;;
28844;SDS011;15976;47.938;7.758;2024-01-30T05:57:18;6.75;;;5.05;;
28844;SDS011;15976;47.938;7.758;2024-01-30T05:59:45;8.88;;;4.30;;
28844;SDS011;15976;47.938;7.758;2024-01-30T06:02:14;11.40;;;5.93;;
28844;SDS011;15976;47.938;7.758;2024-01-30T06:04:42;8.00;;;4.85;;
28844;SDS011;15976;47.938;7.758;2024-01-30T06:07:10;7.78;;;5.05;;
28844;SDS011;15976;47.938;7.758;2024-01-30T06:09:39;6.75;;;4.20;;
28844;SDS011;15976;47.938;7.758;2024-01-30T06:12:07;6.15;;;3.92;;
28844;SDS011;15976;47.938;7.758;2024-01-30T06:14:34;10.20;;;4.45;;
28844;SDS011;15976;47.938;7.758;2024-01-30T06:17:01;9.77;;;4.47;;
28844;SDS011;15976;47.938;7.758;2024-01-30T06:19:29;7.47;;;4.70;;
28844;SDS011;15976;47.938;7.758;2024-01-30T06:21:56;6.90;;;4.68;;
28844;SDS011;15976;47.938;7.758;2024-01-30T06:24:23;7.97;;;4.80;;
28844;SDS011;15976;47.938;7.758;2024-01-30T06:26:50;7.28;;;4.50;;
28844;SDS011;15976;47.938;7.758;2024-01-30T06:29:17;7.97;;;6.00;;
28844;SDS011;15976;47.938;7.758;2024-01-30T06:31:45;13.18;;;8.32;;
28844;SDS011;15976;47.938;7.758;2024-01-30T06:34:13;9.05;;;6.55;;
28844;SDS011;15976;47.938;7.758;2024-01-30T06:36:40;7.85;;;5.50;;
28844;SDS011;15976;47.938;7.758;2024-01-30T06:39:07;10.82;;;6.15;;
28844;SDS011;15976;47.938;7.758;2024-01-30T06:41:35;9.93;;;5.78;;
28844;SDS011;15976;47.938;7.758;2024-01-30T06:44:02;8.38;;;5.40;;
28844;SDS011;15976;47.938;7.758;2024-01-30T06:46:31;8.02;;;4.60;;
28844;SDS011;15976;47.938;7.758;2024-01-30T06:48:59;7.07;;;4.18;;
28844;SDS011;15976;47.938;7.758;2024-01-30T06:51:26;10.77;;;5.43;;
28844;SDS011;15976;47.938;7.758;2024-01-30T06:53:53;9.32;;;5.65;;
28844;SDS011;15976;47.938;7.758;2024-01-30T06:56:20;10.82;;;6.95;;
28844;SDS011;15976;47.938;7.758;2024-01-30T06:58:47;10.82;;;5.88;;
28844;SDS011;15976;47.938;7.758;2024-01-30T07:01:15;7.90;;;5.07;;
28844;SDS011;15976;47.938;7.758;2024-01-30T07:03:43;7.93;;;5.07;;
28844;SDS011;15976;47.938;7.758;2024-01-30T07:06:10;7.22;;;5.00;;
28844;SDS011;15976;47.938;7.758;2024-01-30T07:08:38;14.05;;;6.18;;
28844;SDS011;15976;47.938;7.758;2024-01-30T07:11:05;7.93;;;5.38;;
28844;SDS011;15976;47.938;7.758;2024-01-30T07:13:33;8.05;;;5.07;;
28844;SDS011;15976;47.938;7.758;2024-01-30T07:16:01;10.82;;;6.03;;
28844;SDS011;15976;47.938;7.758;2024-01-30T07:18:28;8.32;;;4.55;;
28844;SDS011;15976;47.938;7.758;2024-01-30T07:20:55;5.43;;;4.40;;
28844;SDS011;15976;47.938;7.758;2024-01-30T07:23:22;6.60;;;4.57;;
28844;SDS011;15976;47.938;7.758;2024-01-30T07:25:49;8.82;;;5.22;;
28844;SDS011;15976;47.938;7.758;2024-01-30T07:28:17;8.05;;;5.53;;
28844;SDS011;15976;47.938;7.758;2024-01-30T07:30:44;6.70;;;4.70;;
28844;SDS011;15976;47.938;7.758;2024-01-30T07:33:12;9.20;;;4.90;;
28844;SDS011;15976;47.938;7.758;2024-01-30T07:35:39;8.48;;;5.03;;
28844;SDS011;15976;47.938;7.758;2024-01-30T07:38:07;9.63;;;5.18;;
28844;SDS011;15976;47.938;7.758;2024-01-30T07:40:34;8.02;;;5.18;;
28844;SDS011;15976;47.938;7.758;2024-01-30T07:43:01;7.88;;;5.05;;
28844;SDS011;15976;47.938;7.758;2024-01-30T07:45:30;9.32;;;4.68;;
28844;SDS011;15976;47.938;7.758;2024-01-30T07:47:59;7.75;;;4.75;;
28844;SDS011;15976;47.938;7.758;2024-01-30T07:50:26;7.10;;;4.57;;
28844;SDS011;15976;47.938;7.758;2024-01-30T07:52:55;6.43;;;4.30;;
28844;SDS011;15976;47.938;7.758;2024-01-30T07:55:23;8.13;;;4.50;;
28844;SDS011;15976;47.938;7.758;2024-01-30T07:57:58;10.65;;;5.00;;
28844;SDS011;15976;47.938;7.758;2024-01-30T08:00:26;7.22;;;4.75;;
28844;SDS011;15976;47.938;7.758;2024-01-30T08:02:55;7.07;;;4.35;;
28844;SDS011;15976;47.938;7.758;2024-01-30T08:05:23;6.55;;;4.70;;
28844;SDS011;15976;47.938;7.758;2024-01-30T08:07:50;7.03;;;4.63;;
28844;SDS011;15976;47.938;7.758;2024-01-30T08:10:18;7.00;;;4.40;;
28844;SDS011;15976;47.938;7.758;2024-01-30T08:12:45;7.22;;;4.40;;
28844;SDS011;15976;47.938;7.758;2024-01-30T08:15:13;10.18;;;4.93;;
28844;SDS011;15976;47.938;7.758;2024-01-30T08:17:40;7.22;;;4.88;;
28844;SDS011;15976;47.938;7.758;2024-01-30T08:20:07;7.40;;;5.03;;
28844;SDS011;15976;47.938;7.758;2024-01-30T08:22:38;7.78;;;4.88;;
28844;SDS011;15976;47.938;7.758;2024-01-30T08:25:06;9.35;;;6.18;;
28844;SDS011;15976;47.938;7.758;2024-01-30T08:27:34;7.38;;;5.05;;
28844;SDS011;15976;47.938;7.758;2024-01-30T08:30:04;7.10;;;4.97;;
28844;SDS011;15976;47.938;7.758;2024-01-30T08:32:32;6.78;;;5.22;;
28844;SDS011;15976;47.938;7.758;2024-01-30T08:34:59;8.50;;;4.97;;
28844;SDS011;15976;47.938;7.758;2024-01-30T08:37:30;5.88;;;4.65;;
28844;SDS011;15976;47.938;7.758;2024-01-30T08:39:57;10.68;;;5.40;;
28844;SDS011;15976;47.938;7.758;2024-01-30T08:42:24;10.20;;;4.97;;
28844;SDS011;15976;47.938;7.758;2024-01-30T08:44:51;7.78;;;5.35;;
28844;SDS011;15976;47.938;7.758;2024-01-30T08:47:19;8.75;;;5.20;;
28844;SDS011;15976;47.938;7.758;2024-01-30T08:49:46;11.45;;;5.78;;
28844;SDS011;15976;47.938;7.758;2024-01-30T08:52:14;8.25;;;5.25;;
28844;SDS011;15976;47.938;7.758;2024-01-30T08:54:41;7.78;;;5.20;;
28844;SDS011;15976;47.938;7.758;2024-01-30T08:57:08;8.88;;;5.90;;
28844;SDS011;15976;47.938;7.758;2024-01-30T08:59:35;7.97;;;5.05;;
28844;SDS011;15976;47.938;7.758;2024-01-30T09:02:02;6.13;;;4.63;;
28844;SDS011;15976;47.938;7.758;2024-01-30T09:04:38;9.05;;;4.82;;
28844;SDS011;15976;47.938;7.758;2024-01-30T09:07:06;7.35;;;4.75;;
28844;SDS011;15976;47.938;7.758;2024-01-30T09:09:39;9.23;;;4.80;;
28844;SDS011;15976;47.938;7.758;2024-01-30T09:12:07;7.97;;;4.68;;
28844;SDS011;15976;47.938;7.758;2024-01-30T09:14:36;7.80;;;4.82;;
28844;SDS011;15976;47.938;7.758;2024-01-30T09:17:04;9.30;;;4.68;;
28844;SDS011;15976;47.938;7.758;2024-01-30T09:19:31;6.88;;;4.90;;
28844;SDS011;15976;47.938;7.758;2024-01-30T09:21:59;7.50;;;4.80;;
28844;SDS011;15976;47.938;7.758;2024-01-30T09:24:26;6.10;;;4.57;;
28844;SDS011;15976;47.938;7.758;2024-01-30T09:26:53;7.00;;;4.43;;
28844;SDS011;15976;47.938;7.758;2024-01-30T09:29:21;8.52;;;4.80;;
28844;SDS011;15976;47.938;7.758;2024-01-30T09:31:48;7.93;;;4.85;;
28844;SDS011;15976;47.938;7.758;2024-01-30T09:34:15;7.32;;;5.28;;
28844;SDS011;15976;47.938;7.758;2024-01-30T09:36:42;7.68;;;4.82;;
28844;SDS011;15976;47.938;7.758;2024-01-30T09:39:09;9.95;;;4.88;;
28844;SDS011;15976;47.938;7.758;2024-01-30T09:41:40;6.63;;;4.45;;
28844;SDS011;15976;47.938;7.758;2024-01-30T09:44:18;6.85;;;4.80;;
28844;SDS011;15976;47.938;7.758;2024-01-30T09:46:47;8.68;;;4.95;;
28844;SDS011;15976;47.938;7.758;2024-01-30T09:49:15;9.20;;;5.07;;
28844;SDS011;15976;47.938;7.758;2024-01-30T09:51:46;6.60;;;5.18;;
28844;SDS011;15976;47.938;7.758;2024-01-30T09:54:15;7.57;;;4.65;;
28844;SDS011;15976;47.938;7.758;2024-01-30T09:56:43;7.57;;;4.80;;
28844;SDS011;15976;47.938;7.758;2024-01-30T09:59:10;8.45;;;5.07;;
28844;SDS011;15976;47.938;7.758;2024-01-30T10:01:37;7.28;;;4.60;;
28844;SDS011;15976;47.938;7.758;2024-01-30T10:04:05;7.72;;;4.88;;
28844;SDS011;15976;47.938;7.758;2024-01-30T10:06:33;8.15;;;4.38;;
28844;SDS011;15976;47.938;7.758;2024-01-30T10:09:01;8.13;;;5.07;;
28844;SDS011;15976;47.938;7.758;2024-01-30T10:11:28;12.00;;;5.15;;
28844;SDS011;15976;47.938;7.758;2024-01-30T10:13:55;8.10;;;4.32;;
28844;SDS011;15976;47.938;7.758;2024-01-30T10:16:22;9.18;;;4.63;;
28844;SDS011;15976;47.938;7.758;2024-01-30T10:18:50;8.52;;;4.72;;
28844;SDS011;15976;47.938;7.758;2024-01-30T10:21:17;6.75;;;4.53;;
28844;SDS011;15976;47.938;7.758;2024-01-30T10:23:45;7.15;;;5.10;;
28844;SDS011;15976;47.938;7.758;2024-01-30T10:26:12;8.70;;;5.07;;
28844;SDS011;15976;47.938;7.758;2024-01-30T10:28:39;10.73;;;4.90;;
28844;SDS011;15976;47.938;7.758;2024-01-30T10:31:06;7.40;;;4.10;;
28844;SDS011;15976;47.938;7.758;2024-01-30T10:33:33;6.95;;;4.68;;
28844;SDS011;15976;47.938;7.758;2024-01-30T10:36:01;7.82;;;4.57;;
28844;SDS011;15976;47.938;7.758;2024-01-30T10:38:31;7.60;;;4.35;;
28844;SDS011;15976;47.938;7.758;2024-01-30T10:41:00;7.78;;;4.00;;
28844;SDS011;15976;47.938;7.758;2024-01-30T10:43:31;5.80;;;4.05;;
28844;SDS011;15976;47.938;7.758;2024-01-30T10:46:04;5.45;;;3.92;;
28844;SDS011;15976;47.938;7.758;2024-01-30T10:48:43;6.70;;;3.90;;
28844;SDS011;15976;47.938;7.758;2024-01-30T10:51:15;6.45;;;4.03;;
28844;SDS011;15976;47.938;7.758;2024-01-30T10:53:44;7.65;;;3.95;;
28844;SDS011;15976;47.938;7.758;2024-01-30T10:56:13;5.88;;;3.72;;
28844;SDS011;15976;47.938;7.758;2024-01-30T10:58:42;5.22;;;3.28;;
28844;SDS011;15976;47.938;7.758;2024-01-30T11:01:09;4.85;;;3.55;;
28844;SDS011;15976;47.938;7.758;2024-01-30T11:03:37;6.57;;;4.00;;
28844;SDS011;15976;47.938;7.758;2024-01-30T11:06:04;5.28;;;3.35;;
28844;SDS011;15976;47.938;7.758;2024-01-30T11:08:32;6.57;;;4.18;;
28844;SDS011;15976;47.938;7.758;2024-01-30T11:10:59;7.22;;;3.72;;
28844;SDS011;15976;47.938;7.758;2024-01-30T11:13:26;5.43;;;3.80;;
28844;SDS011;15976;47.938;7.758;2024-01-30T11:16:00;6.07;;;3.58;;
28844;SDS011;15976;47.938;7.758;2024-01-30T11:18:29;8.67;;;4.10;;
28844;SDS011;15976;47.938;7.758;2024-01-30T11:20:57;6.90;;;3.70;;
28844;SDS011;15976;47.938;7.758;2024-01-30T11:23:27;5.88;;;3.63;;
28844;SDS011;15976;47.938;7.758;2024-01-30T11:25:55;7.40;;;4.30;;
28844;SDS011;15976;47.938;7.758;2024-01-30T11:28:24;5.47;;;3.70;;
28844;SDS011;15976;47.938;7.758;2024-01-30T11:31:07;5.05;;;3.95;;
28844;SDS011;15976;47.938;7.758;2024-01-30T11:33:34;6.82;;;3.70;;
28844;SDS011;15976;47.938;7.758;2024-01-30T11:36:02;5.88;;;3.60;;
28844;SDS011;15976;47.938;7.758;2024-01-30T11:38:33;7.40;;;3.70;;
28844;SDS011;15976;47.938;7.758;2024-01-30T11:41:00;9.02;;;4.30;;
28844;SDS011;15976;47.938;7.758;2024-01-30T11:43:29;7.03;;;4.07;;
28844;SDS011;15976;47.938;7.758;2024-01-30T11:45:57;4.70;;;3.75;;
28844;SDS011;15976;47.938;7.758;2024-01-30T11:48:25;4.47;;;3.38;;
28844;SDS011;15976;47.938;7.758;2024-01-30T11:50:53;5.45;;;3.85;;
28844;SDS011;15976;47.938;7.758;2024-01-30T11:53:20;6.20;;;3.72;;
28844;SDS011;15976;47.938;7.758;2024-01-30T11:55:49;6.18;;;4.10;;
28844;SDS011;15976;47.938;7.758;2024-01-30T11:58:17;5.32;;;3.50;;
28844;SDS011;15976;47.938;7.758;2024-01-30T12:00:52;7.47;;;3.88;;
28844;SDS011;15976;47.938;7.758;2024-01-30T12:03:23;9.70;;;3.95;;
28844;SDS011;15976;47.938;7.758;2024-01-30T12:05:56;5.13;;;3.55;;
28844;SDS011;15976;47.938;7.758;2024-01-30T12:08:27;8.32;;;3.88;;
28844;SDS011;15976;47.938;7.758;2024-01-30T12:10:58;6.57;;;3.95;;
28844;SDS011;15976;47.938;7.758;2024-01-30T12:13:27;6.25;;;3.85;;
28844;SDS011;15976;47.938;7.758;2024-01-30T12:15:59;7.95;;;4.15;;
28844;SDS011;15976;47.938;7.758;2024-01-30T12:18:27;4.80;;;3.92;;
28844;SDS011;15976;47.938;7.758;2024-01-30T12:20:58;6.97;;;4.25;;
28844;SDS011;15976;47.938;7.758;2024-01-30T12:23:28;6.68;;;4.32;;
28844;SDS011;15976;47.938;7.758;2024-01-30T12:25:56;5.30;;;3.90;;
28844;SDS011;15976;47.938;7.758;2024-01-30T12:28:23;5.60;;;3.90;;
28844;SDS011;15976;47.938;7.758;2024-01-30T12:30:55;7.45;;;4.13;;
28844;SDS011;15976;47.938;7.758;2024-01-30T12:33:26;7.10;;;4.40;;
28844;SDS011;15976;47.938;7.758;2024-01-30T12:35:55;6.70;;;3.63;;
28844;SDS011;15976;47.938;7.758;2024-01-30T12:38:29;6.13;;;3.72;;
28844;SDS011;15976;47.938;7.758;2024-01-30T12:40:56;7.00;;;4.32;;
28844;SDS011;15976;47.938;7.758;2024-01-30T12:43:24;7.43;;;4.07;;
28844;SDS011;15976;47.938;7.758;2024-01-30T12:46:03;6.50;;;4.00;;
28844;SDS011;15976;47.938;7.758;2024-01-30T12:48:32;6.03;;;3.90;;
28844;SDS011;15976;47.938;7.758;2024-01-30T12:50:59;6.70;;;4.13;;
28844;SDS011;15976;47.938;7.758;2024-01-30T12:53:26;6.20;;;3.45;;
28844;SDS011;15976;47.938;7.758;2024-01-30T12:55:54;7.82;;;3.90;;
28844;SDS011;15976;47.938;7.758;2024-01-30T12:58:21;6.25;;;4.15;;
28844;SDS011;15976;47.938;7.758;2024-01-30T13:00:49;6.05;;;3.78;;
28844;SDS011;15976;47.938;7.758;2024-01-30T13:03:16;15.50;;;7.70;;
28844;SDS011;15976;47.938;7.758;2024-01-30T13:05:43;9.88;;;4.50;;
28844;SDS011;15976;47.938;7.758;2024-01-30T13:08:10;6.72;;;3.80;;
28844;SDS011;15976;47.938;7.758;2024-01-30T13:10:37;6.60;;;3.63;;
28844;SDS011;15976;47.938;7.758;2024-01-30T13:13:04;6.35;;;3.55;;
28844;SDS011;15976;47.938;7.758;2024-01-30T13:15:41;5.38;;;3.80;;
28844;SDS011;15976;47.938;7.758;2024-01-30T13:18:09;5.45;;;3.83;;
28844;SDS011;15976;47.938;7.758;2024-01-30T13:20:36;6.63;;;3.30;;
28844;SDS011;15976;47.938;7.758;2024-01-30T13:23:03;8.25;;;3.92;;
28844;SDS011;15976;47.938;7.758;2024-01-30T13:25:30;5.90;;;4.00;;
28844;SDS011;15976;47.938;7.758;2024-01-30T13:27:58;7.40;;;3.85;;
28844;SDS011;15976;47.938;7.758;2024-01-30T13:30:25;6.95;;;3.95;;
28844;SDS011;15976;47.938;7.758;2024-01-30T13:32:52;5.25;;;3.67;;
28844;SDS011;15976;47.938;7.758;2024-01-30T13:35:19;7.63;;;4.57;;
28844;SDS011;15976;47.938;7.758;2024-01-30T13:37:46;5.00;;;3.90;;
28844;SDS011;15976;47.938;7.758;2024-01-30T13:40:15;6.47;;;3.90;;
28844;SDS011;15976;47.938;7.758;2024-01-30T13:42:43;6.00;;;3.42;;
28844;SDS011;15976;47.938;7.758;2024-01-30T13:45:10;7.72;;;4.07;;
28844;SDS011;15976;47.938;7.758;2024-01-30T13:47:37;5.40;;;3.75;;
28844;SDS011;15976;47.938;7.758;2024-01-30T13:50:05;9.15;;;4.22;;
28844;SDS011;15976;47.938;7.758;2024-01-30T13:52:33;5.28;;;3.92;;
28844;SDS011;15976;47.938;7.758;2024-01-30T13:55:10;8.23;;;4.90;;
28844;SDS011;15976;47.938;7.758;2024-01-30T13:57:37;6.93;;;4.38;;
28844;SDS011;15976;47.938;7.758;2024-01-30T14:00:05;10.23;;;7.18;;
28844;SDS011;15976;47.938;7.758;2024-01-30T14:02:38;9.80;;;5.85;;
28844;SDS011;15976;47.938;7.758;2024-01-30T14:05:05;6.47;;;4.05;;
28844;SDS011;15976;47.938;7.758;2024-01-30T14:07:33;6.68;;;4.25;;
28844;SDS011;15976;47.938;7.758;2024-01-30T14:10:02;10.30;;;5.68;;
28844;SDS011;15976;47.938;7.758;2024-01-30T14:12:34;7.88;;;6.35;;
28844;SDS011;15976;47.938;7.758;2024-01-30T14:15:02;15.02;;;9.48;;
28844;SDS011;15976;47.938;7.758;2024-01-30T14:17:44;16.60;;;11.37;;
28844;SDS011;15976;47.938;7.758;2024-01-30T14:20:12;11.63;;;8.40;;
28844;SDS011;15976;47.938;7.758;2024-01-30T14:22:39;11.43;;;7.80;;
28844;SDS011;15976;47.938;7.758;2024-01-30T14:25:06;9.77;;;6.25;;
28844;SDS011;15976;47.938;7.758;2024-01-30T14:27:34;11.73;;;6.63;;
28844;SDS011;15976;47.938;7.758;2024-01-30T14:30:02;8.60;;;4.70;;
28844;SDS011;15976;47.938;7.758;2024-01-30T14:32:29;8.02;;;4.25;;
28844;SDS011;15976;47.938;7.758;2024-01-30T14:34:56;7.25;;;4.38;;
28844;SDS011;15976;47.938;7.758;2024-01-30T14:37:23;9.80;;;4.97;;
28844;SDS011;15976;47.938;7.758;2024-01-30T14:39:51;11.00;;;5.25;;
28844;SDS011;15976;47.938;7.758;2024-01-30T14:42:18;9.45;;;5.30;;
28844;SDS011;15976;47.938;7.758;2024-01-30T14:44:45;8.80;;;5.20;;
28844;SDS011;15976;47.938;7.758;2024-01-30T14:47:12;9.60;;;5.00;;
28844;SDS011;15976;47.938;7.758;2024-01-30T14:49:40;7.00;;;4.97;;